createdAt,value
2022-11-13T00:02:01.662Z,67.22
2022-11-13T00:05:08.886Z,67.41
2022-11-13T00:08:14.871Z,67.51
2022-11-13T00:11:21.955Z,67.49
2022-11-13T00:14:27.605Z,67.67
2022-11-13T00:17:33.259Z,67.80
2022-11-13T00:20:39.522Z,67.86
2022-11-13T00:23:43.765Z,67.83
2022-11-13T00:26:49.498Z,67.92
2022-11-13T00:29:55.147Z,67.75
2022-11-13T00:33:00.752Z,67.67
2022-11-13T00:36:08.500Z,67.50
2022-11-13T00:39:14.088Z,67.13
2022-11-13T00:42:19.708Z,67.06
2022-11-13T00:45:25.456Z,67.11
2022-11-13T00:48:31.126Z,67.06
2022-11-13T00:51:36.860Z,67.16
2022-11-13T00:54:42.510Z,67.39
2022-11-13T00:57:48.113Z,67.49
2022-11-13T01:00:54.099Z,67.60
2022-11-13T01:03:59.713Z,67.59
2022-11-13T01:07:05.470Z,67.67
2022-11-13T01:10:13.409Z,67.74
2022-11-13T01:13:19.250Z,67.80
2022-11-13T01:16:27.398Z,67.76
2022-11-13T01:19:32.977Z,67.79
2022-11-13T01:22:38.798Z,67.90
2022-11-13T01:25:44.455Z,67.88
2022-11-13T01:28:50.518Z,67.88
2022-11-13T01:31:56.169Z,67.78
2022-11-13T01:35:01.820Z,67.68
2022-11-13T01:38:07.471Z,67.63
2022-11-13T01:41:22.932Z,67.69
2022-11-13T01:44:29.116Z,67.86
2022-11-13T01:47:34.886Z,68.08
2022-11-13T01:50:40.939Z,67.95
2022-11-13T01:53:48.567Z,68.04
2022-11-13T01:56:55.935Z,68.06
2022-11-13T02:00:05.649Z,67.98
2022-11-13T02:03:11.592Z,67.85
2022-11-13T02:06:17.588Z,67.92
2022-11-13T02:09:25.981Z,67.98
2022-11-13T02:12:36.887Z,68.12
2022-11-13T02:15:44.063Z,68.01
2022-11-13T02:18:50.021Z,67.88
2022-11-13T02:22:01.719Z,67.94
2022-11-13T02:25:09.925Z,68.08
2022-11-13T02:28:15.686Z,68.24
2022-11-13T02:31:21.324Z,68.26
2022-11-13T02:34:26.938Z,68.23
2022-11-13T02:37:32.566Z,68.18
2022-11-13T02:40:39.237Z,68.28
2022-11-13T02:43:44.867Z,68.43
2022-11-13T02:46:50.524Z,68.52
2022-11-13T02:49:56.210Z,68.23
2022-11-13T02:53:02.219Z,68.27
2022-11-13T02:56:09.365Z,68.55
2022-11-13T02:59:15.025Z,68.83
2022-11-13T03:02:20.629Z,68.71
2022-11-13T03:05:26.373Z,68.41
2022-11-13T03:08:32.945Z,68.31
2022-11-13T03:11:39.315Z,68.12
2022-11-13T03:14:44.968Z,68.13
2022-11-13T03:17:50.567Z,68.24
2022-11-13T03:20:56.162Z,68.20
2022-11-13T03:24:02.546Z,68.31
2022-11-13T03:27:08.664Z,68.23
2022-11-13T03:30:15.278Z,68.28
2022-11-13T03:33:20.880Z,68.26
2022-11-13T03:36:27.004Z,68.36
2022-11-13T03:39:32.746Z,68.36
2022-11-13T03:42:38.421Z,68.25
2022-11-13T03:45:45.278Z,68.26
2022-11-13T03:48:51.255Z,68.13
2022-11-13T03:51:56.884Z,68.23
2022-11-13T03:55:02.495Z,68.16
2022-11-13T03:58:08.597Z,68.14
2022-11-13T04:01:14.379Z,68.14
2022-11-13T04:04:20.108Z,68.08
2022-11-13T04:07:25.756Z,67.82
2022-11-13T04:10:31.859Z,67.74
2022-11-13T04:13:37.763Z,68.03
2022-11-13T04:16:43.386Z,68.02
2022-11-13T04:19:49.085Z,68.09
2022-11-13T04:22:54.836Z,68.12
2022-11-13T04:26:00.746Z,68.15
2022-11-13T04:29:06.477Z,68.35
2022-11-13T04:32:12.123Z,68.23
2022-11-13T04:35:17.850Z,67.76
2022-11-13T04:38:23.428Z,67.56
2022-11-13T04:41:50.064Z,67.58
2022-11-13T04:44:59.812Z,67.59
2022-11-13T04:48:05.547Z,67.70
2022-11-13T04:51:11.198Z,67.71
2022-11-13T04:54:17.464Z,67.80
2022-11-13T04:57:23.119Z,67.91
2022-11-13T05:00:28.770Z,68.00
2022-11-13T05:03:34.405Z,68.06
2022-11-13T05:06:40.226Z,68.21
2022-11-13T05:09:46.030Z,68.19
2022-11-13T05:12:51.623Z,68.22
2022-11-13T05:16:04.692Z,68.14
2022-11-13T05:19:10.664Z,68.27
2022-11-13T05:22:16.306Z,68.27
2022-11-13T05:25:22.172Z,68.38
2022-11-13T05:28:28.793Z,68.47
2022-11-13T05:31:34.913Z,68.52
2022-11-13T05:34:40.563Z,68.34
2022-11-13T05:37:46.125Z,67.97
2022-11-13T05:40:51.762Z,68.09
2022-11-13T05:43:59.811Z,68.23
2022-11-13T05:47:06.083Z,68.38
2022-11-13T05:50:12.917Z,68.53
2022-11-13T05:53:18.568Z,68.75
2022-11-13T05:56:27.599Z,68.82
2022-11-13T05:59:33.251Z,68.73
2022-11-13T06:02:39.108Z,68.92
2022-11-13T06:05:44.718Z,68.83
2022-11-13T06:08:51.828Z,68.92
2022-11-13T06:11:57.804Z,69.09
2022-11-13T06:15:03.406Z,68.80
2022-11-13T06:18:09.122Z,68.77
2022-11-13T06:21:17.627Z,68.79
2022-11-13T06:24:23.657Z,69.21
2022-11-13T06:27:30.078Z,69.36
2022-11-13T06:30:35.688Z,69.13
2022-11-13T06:33:42.998Z,68.53
2022-11-13T06:36:48.649Z,68.27
2022-11-13T06:39:54.234Z,68.60
2022-11-13T06:42:59.846Z,68.41
2022-11-13T06:46:08.881Z,68.13
2022-11-13T06:49:15.253Z,68.35
2022-11-13T06:52:19.366Z,68.32
2022-11-13T06:55:24.957Z,68.55
2022-11-13T06:58:30.924Z,68.80
2022-11-13T07:01:36.773Z,68.82
2022-11-13T07:04:42.486Z,68.73
2022-11-13T07:07:48.104Z,68.74
2022-11-13T07:10:58.016Z,68.96
2022-11-13T07:14:03.624Z,68.68
2022-11-13T07:17:10.559Z,69.14
2022-11-13T07:20:17.197Z,69.18
2022-11-13T07:23:21.310Z,69.02
2022-11-13T07:26:26.964Z,68.97
2022-11-13T07:29:32.614Z,68.97
2022-11-13T07:32:38.266Z,69.07
2022-11-13T07:35:43.920Z,69.36
2022-11-13T07:38:49.570Z,69.29
2022-11-13T07:41:55.223Z,69.16
2022-11-13T07:45:00.860Z,69.18
2022-11-13T07:48:07.672Z,69.15
2022-11-13T07:51:13.406Z,69.31
2022-11-13T07:54:19.059Z,69.13
2022-11-13T07:57:24.709Z,69.37
2022-11-13T08:00:32.006Z,69.61
2022-11-13T08:03:37.653Z,69.69
2022-11-13T08:06:43.377Z,69.50
2022-11-13T08:09:49.045Z,69.76
2022-11-13T08:13:02.794Z,69.85
2022-11-13T08:16:09.441Z,70.15
2022-11-13T08:19:15.124Z,70.01
2022-11-13T08:22:20.725Z,69.64
2022-11-13T08:25:26.738Z,69.42
2022-11-13T08:28:32.493Z,69.51
2022-11-13T08:31:38.144Z,69.71
2022-11-13T08:34:43.797Z,69.45
2022-11-13T08:37:49.755Z,69.30
2022-11-13T08:40:57.456Z,68.75
2022-11-13T08:44:03.071Z,68.71
2022-11-13T08:47:08.745Z,69.10
2022-11-13T08:50:14.795Z,69.22
2022-11-13T08:53:20.475Z,69.42
2022-11-13T08:56:26.123Z,70.00
2022-11-13T08:59:31.911Z,69.73
2022-11-13T09:02:37.528Z,69.54
2022-11-13T09:05:43.180Z,69.44
2022-11-13T09:08:48.781Z,69.42
2022-11-13T09:11:54.485Z,68.92
2022-11-13T09:15:00.140Z,69.30
2022-11-13T09:18:06.572Z,69.22
2022-11-13T09:21:12.260Z,69.26
2022-11-13T09:24:17.970Z,69.06
2022-11-13T09:27:23.807Z,68.81
2022-11-13T09:30:31.265Z,68.69
2022-11-13T09:33:37.016Z,68.73
2022-11-13T09:36:42.672Z,68.93
2022-11-13T09:39:48.422Z,68.97
2022-11-13T09:42:54.377Z,69.22
2022-11-13T09:46:06.864Z,69.71
2022-11-13T09:49:18.990Z,70.02
2022-11-13T09:52:35.593Z,70.00
2022-11-13T09:55:53.954Z,70.15
2022-11-13T09:59:08.314Z,69.93
2022-11-13T10:02:23.178Z,69.80
2022-11-13T10:05:36.077Z,70.04
2022-11-13T10:08:52.709Z,69.38
2022-11-13T10:12:03.081Z,69.55
2022-11-13T10:15:12.692Z,69.22
2022-11-13T10:18:21.895Z,69.17
2022-11-13T10:21:34.756Z,69.65
2022-11-13T10:24:44.205Z,69.49
2022-11-13T10:27:54.700Z,69.65
2022-11-13T10:31:00.646Z,69.37
2022-11-13T10:34:06.949Z,69.18
2022-11-13T10:37:22.614Z,68.99
2022-11-13T10:40:31.016Z,68.84
2022-11-13T10:43:36.968Z,68.32
2022-11-13T10:46:42.727Z,68.20
2022-11-13T10:49:48.583Z,68.24
2022-11-13T10:52:56.575Z,68.57
2022-11-13T10:56:02.542Z,68.72
2022-11-13T10:59:13.976Z,68.52
2022-11-13T11:02:22.807Z,68.19
2022-11-13T11:05:30.038Z,68.19
2022-11-13T11:08:36.618Z,68.22
2022-11-13T11:12:00.568Z,68.04
2022-11-13T11:15:19.458Z,68.22
2022-11-13T11:18:30.592Z,68.43
2022-11-13T11:21:38.626Z,68.40
2022-11-13T11:24:51.150Z,68.51
2022-11-13T11:28:01.991Z,68.36
2022-11-13T11:31:26.974Z,68.41
2022-11-13T11:34:36.685Z,68.03
2022-11-13T11:37:48.279Z,67.91
2022-11-13T11:40:58.212Z,67.57
2022-11-13T11:44:12.278Z,67.37
2022-11-13T11:47:19.435Z,67.22
2022-11-13T11:50:36.441Z,67.03
2022-11-13T11:53:51.527Z,66.95
2022-11-13T11:57:06.118Z,66.32
2022-11-13T12:00:16.026Z,66.09
2022-11-13T12:03:52.512Z,66.54
2022-11-13T12:07:15.473Z,66.83
2022-11-13T12:10:33.135Z,66.97
2022-11-13T12:13:51.580Z,67.02
2022-11-13T12:17:19.765Z,67.29
2022-11-13T12:20:34.835Z,67.46
2022-11-13T12:23:54.204Z,67.74
2022-11-13T12:27:14.711Z,67.63
2022-11-13T12:30:23.369Z,67.41
2022-11-13T12:33:41.712Z,67.11
2022-11-13T12:36:48.648Z,67.77
2022-11-13T12:39:58.289Z,67.42
2022-11-13T12:43:24.339Z,67.55
2022-11-13T12:46:39.910Z,67.99
2022-11-13T12:49:45.576Z,68.16
2022-11-13T12:53:03.410Z,68.14
2022-11-13T12:56:15.516Z,68.02
2022-11-13T12:59:35.896Z,68.29
2022-11-13T13:02:52.233Z,68.46
2022-11-13T13:06:15.276Z,68.49
2022-11-13T13:09:34.960Z,67.99
2022-11-13T13:12:49.892Z,67.58
2022-11-13T13:15:59.784Z,67.35
2022-11-13T13:19:28.494Z,66.95
2022-11-13T13:22:35.545Z,66.61
2022-11-13T13:25:42.334Z,66.26
2022-11-13T13:28:51.353Z,66.26
2022-11-13T13:32:12.194Z,66.09
2022-11-13T13:35:24.973Z,66.20
2022-11-13T13:38:38.323Z,66.47
2022-11-13T13:41:58.391Z,67.02
2022-11-13T13:45:25.532Z,67.35
2022-11-13T13:48:33.332Z,67.65
2022-11-13T13:51:43.921Z,67.79
2022-11-13T13:54:50.605Z,67.71
2022-11-13T13:58:00.323Z,67.66
2022-11-13T14:01:19.474Z,67.52
2022-11-13T14:04:27.117Z,67.34
2022-11-13T14:07:35.860Z,67.09
2022-11-13T14:10:41.608Z,67.19
2022-11-13T14:13:47.231Z,67.41
2022-11-13T14:16:54.807Z,67.75
2022-11-13T14:20:01.241Z,68.08
2022-11-13T14:23:07.576Z,68.23
2022-11-13T14:26:14.161Z,68.34
2022-11-13T14:29:32.102Z,68.33
2022-11-13T14:32:46.934Z,68.37
2022-11-13T14:35:57.530Z,68.55
2022-11-13T14:39:04.316Z,68.57
2022-11-13T14:42:17.539Z,68.61
2022-11-13T14:45:25.723Z,68.48
2022-11-13T14:48:32.939Z,68.17
2022-11-13T14:51:38.696Z,67.87
2022-11-13T14:55:13.494Z,67.74
2022-11-13T14:58:15.293Z,67.84
2022-11-13T15:01:23.092Z,67.71
2022-11-13T15:04:28.748Z,67.75
2022-11-13T15:07:39.010Z,67.80
2022-11-13T15:10:45.100Z,67.86
2022-11-13T15:13:50.826Z,67.97
2022-11-13T15:16:57.304Z,68.07
2022-11-13T15:20:08.404Z,68.28
2022-11-13T15:23:17.430Z,68.48
2022-11-13T15:26:24.478Z,68.60
2022-11-13T15:29:30.082Z,68.71
2022-11-13T15:32:36.286Z,68.85
2022-11-13T15:35:41.243Z,69.11
2022-11-13T15:38:46.997Z,69.30
2022-11-13T15:41:52.940Z,69.38
2022-11-13T15:44:59.015Z,69.58
2022-11-13T15:48:05.286Z,69.77
2022-11-13T15:51:14.114Z,70.02
2022-11-13T15:54:26.618Z,70.33
2022-11-13T15:57:32.725Z,70.36
2022-11-13T16:00:42.736Z,70.47
2022-11-13T16:03:48.614Z,70.65
2022-11-13T16:06:54.979Z,70.81
2022-11-13T16:10:00.761Z,71.03
2022-11-13T16:13:06.470Z,71.04
2022-11-13T16:16:18.157Z,70.85
2022-11-13T16:19:25.721Z,70.74
2022-11-13T16:22:31.826Z,70.52
2022-11-13T16:25:37.723Z,70.33
2022-11-13T16:32:14.804Z,70.09
2022-11-13T16:35:21.648Z,69.92
2022-11-13T16:38:27.420Z,69.26
2022-11-13T16:41:33.665Z,69.72
2022-11-13T16:44:38.005Z,69.42
2022-11-13T16:47:43.733Z,69.54
2022-11-13T16:50:49.478Z,69.75
2022-11-13T16:53:55.122Z,69.85
2022-11-13T16:57:00.820Z,69.99
2022-11-13T17:00:12.121Z,69.74
2022-11-13T17:03:17.738Z,69.97
2022-11-13T17:06:29.138Z,70.53
2022-11-13T17:09:34.791Z,70.83
2022-11-13T17:12:40.429Z,70.71
2022-11-13T17:15:46.081Z,70.74
2022-11-13T17:18:53.380Z,70.58
2022-11-13T17:21:59.123Z,70.71
2022-11-13T17:25:05.200Z,70.96
2022-11-13T17:28:10.852Z,70.96
2022-11-13T17:31:16.673Z,71.14
2022-11-13T17:34:22.362Z,71.08
2022-11-13T17:37:28.115Z,71.24
2022-11-13T17:40:33.721Z,70.97
2022-11-13T17:43:40.334Z,70.68
2022-11-13T17:46:45.962Z,70.56
2022-11-13T17:49:51.875Z,70.45
2022-11-13T17:52:57.728Z,70.08
2022-11-13T17:56:07.366Z,70.07
2022-11-13T17:59:13.104Z,70.65
2022-11-13T18:02:18.756Z,70.68
2022-11-13T18:05:24.510Z,71.11
2022-11-13T18:08:30.162Z,71.16
2022-11-13T18:11:35.774Z,71.15
2022-11-13T18:14:41.465Z,70.71
2022-11-13T18:17:47.118Z,71.00
2022-11-13T18:20:53.179Z,71.43
2022-11-13T18:24:05.820Z,71.63
2022-11-13T18:27:11.857Z,71.69
2022-11-13T18:30:18.205Z,71.80
2022-11-13T18:33:23.875Z,71.82
2022-11-13T18:36:29.526Z,71.81
2022-11-13T18:39:35.181Z,71.55
2022-11-13T18:42:40.935Z,71.32
2022-11-13T18:45:56.296Z,71.07
2022-11-13T18:49:02.170Z,70.94
2022-11-13T18:52:08.430Z,70.73
2022-11-13T18:55:14.090Z,70.62
2022-11-13T18:58:19.944Z,70.50
2022-11-13T19:01:28.482Z,70.56
2022-11-13T19:04:35.563Z,70.57
2022-11-13T19:07:41.183Z,70.47
2022-11-13T19:10:47.159Z,70.58
2022-11-13T19:13:53.541Z,70.37
2022-11-13T19:16:59.180Z,70.11
2022-11-13T19:20:05.338Z,69.94
2022-11-13T19:23:10.981Z,69.94
2022-11-13T19:26:16.941Z,69.92
2022-11-13T19:29:22.606Z,69.73
2022-11-13T19:32:28.461Z,69.78
2022-11-13T19:35:34.625Z,69.68
2022-11-13T19:38:42.098Z,69.55
2022-11-13T19:41:48.027Z,69.43
2022-11-13T19:44:53.731Z,69.31
2022-11-13T19:47:59.461Z,69.45
2022-11-13T19:51:10.775Z,69.39
2022-11-13T19:54:17.682Z,69.73
2022-11-13T19:57:23.505Z,69.98
2022-11-13T20:00:29.260Z,70.22
2022-11-13T20:03:34.829Z,70.25
2022-11-13T20:06:40.886Z,70.08
2022-11-13T20:09:46.517Z,69.95
2022-11-13T20:12:52.174Z,69.81
2022-11-13T20:15:57.990Z,69.86
2022-11-13T20:19:03.684Z,69.80
2022-11-13T20:22:09.337Z,69.70
2022-11-13T20:25:15.192Z,69.71
2022-11-13T20:28:20.845Z,69.37
2022-11-13T20:31:27.871Z,69.34
2022-11-13T20:34:33.682Z,69.33
2022-11-13T20:37:39.338Z,69.49
2022-11-13T20:40:44.987Z,69.52
2022-11-13T20:43:51.056Z,69.41
2022-11-13T20:46:58.850Z,69.05
2022-11-13T20:50:04.604Z,69.13
2022-11-13T20:53:10.420Z,69.04
2022-11-13T20:56:17.341Z,69.26
2022-11-13T20:59:22.994Z,69.47
2022-11-13T21:02:28.749Z,69.77
2022-11-13T21:05:34.423Z,69.88
2022-11-13T21:08:40.469Z,69.87
2022-11-13T21:11:46.073Z,69.75
2022-11-13T21:14:52.340Z,69.62
2022-11-13T21:17:56.495Z,69.54
2022-11-13T21:21:09.292Z,69.70
2022-11-13T21:24:14.967Z,69.55
2022-11-13T21:27:20.618Z,69.75
2022-11-13T21:30:26.373Z,69.49
2022-11-13T21:33:32.010Z,69.61
2022-11-13T21:36:37.678Z,69.74
2022-11-13T21:39:43.328Z,69.67
2022-11-13T21:42:49.288Z,69.63
2022-11-13T21:45:54.940Z,69.68
2022-11-13T21:49:02.515Z,69.85
2022-11-13T21:52:08.395Z,69.82
2022-11-13T21:55:14.162Z,69.69
2022-11-13T21:58:19.800Z,69.69
2022-11-13T22:01:26.159Z,69.60
2022-11-13T22:04:31.822Z,69.38
2022-11-13T22:07:37.573Z,69.42
2022-11-13T22:10:43.432Z,69.34
2022-11-13T22:13:49.121Z,69.46
2022-11-13T22:16:54.837Z,69.45
2022-11-13T22:20:00.517Z,69.57
2022-11-13T22:23:08.773Z,69.36
2022-11-13T22:26:17.321Z,69.17
2022-11-13T22:29:26.008Z,69.16
2022-11-13T22:32:31.706Z,69.14
2022-11-13T22:35:37.450Z,69.19
2022-11-13T22:38:44.515Z,69.33
2022-11-13T22:41:50.103Z,69.07
2022-11-13T22:44:56.733Z,69.12
2022-11-13T22:48:02.511Z,69.20
2022-11-13T22:51:11.541Z,69.15
2022-11-13T22:54:17.198Z,69.27
2022-11-13T22:57:22.769Z,69.33
2022-11-13T23:00:28.398Z,69.39
2022-11-13T23:03:37.161Z,69.35
2022-11-13T23:06:43.344Z,69.16
2022-11-13T23:09:49.041Z,69.25
2022-11-13T23:12:55.122Z,69.20
2022-11-13T23:16:00.757Z,69.11
2022-11-13T23:19:07.142Z,69.26
2022-11-13T23:22:12.750Z,69.11
2022-11-13T23:25:18.632Z,69.07
2022-11-13T23:28:24.647Z,69.14
2022-11-13T23:31:30.259Z,68.99
2022-11-13T23:34:58.317Z,68.80
2022-11-13T23:38:01.718Z,68.90
2022-11-13T23:41:08.184Z,69.06
2022-11-13T23:44:13.769Z,69.04
2022-11-13T23:47:19.800Z,68.91
2022-11-13T23:50:25.554Z,68.86
2022-11-13T23:53:31.207Z,69.15
2022-11-13T23:56:36.857Z,69.15
2022-11-13T23:59:42.510Z,69.36
